America — WDE6770 — position and weather

sailwx.info

Track history (hours):
 
Tides and Currents Weather Stations Pressure Air Temp Water Temp Dewpoint Dewpoint Depression Visibility Wind Speed Wind Dir Waves Ship Positions

America

Owner: Foss Maritime Company, Seattle, WA. More information available from US FCC via Universal Licensing System and Coast Guard Vessel Documentation Center.

Last reported at 2018-Jun-18 20:58 UTC. Time now 2018-Jun-18 21:17 UTC.
Position N 37°48' W 122°24'.

Length 30 m; draft 5.2 m.

Type: Tug. MMSI: 367384610.

Date/timePositionNaut miles runAvg speedWind from/ knotsBaromVisibWave heightAir tempDewpointWater temp
2018-Jun-18 20:58N 37°48' W 122°24'0 0.0
2018-Jun-18 20:28N 37°48' W 122°24'0 0.0
2018-Jun-18 19:58N 37°48' W 122°24'0 0.0
2018-Jun-18 19:30N 37°48' W 122°24'2 3.6
2018-Jun-18 19:00N 37°48' W 122°22'4 7.7
2018-Jun-18 18:30N 37°49' W 122°26'3 6.8
2018-Jun-18 18:00N 37°48' W 122°30'0 0.7
2018-Jun-18 17:30N 37°48' W 122°30'1 1.3
2018-Jun-18 17:00N 37°48' W 122°30'510.1
2018-Jun-18 16:30N 37°50' W 122°24'2 3.6
2018-Jun-18 15:58N 37°49' W 122°22'0 0.1
2018-Jun-18 15:28N 37°49' W 122°22'0 0.0
2018-Jun-18 14:55N 37°49' W 122°22'0 0.0
2018-Jun-18 14:28N 37°49' W 122°22'0 0.1
2018-Jun-18 14:00N 37°49' W 122°22'2 3.1
2018-Jun-18 13:30N 37°49' W 122°20'0 0.0
2018-Jun-18 13:00N 37°49' W 122°20'0 0.8
2018-Jun-18 12:30N 37°49' W 122°20'3 6.4
2018-Jun-18 12:01N 37°49' W 122°24'5 8.8
2018-Jun-18 11:25N 37°54' W 122°24'1 2.1
2018-Jun-18 10:58N 37°54' W 122°22'0 0.0
2018-Jun-18 10:28N 37°54' W 122°22'0 0.0
2018-Jun-18 09:58N 37°54' W 122°22'0 0.0
2018-Jun-18 09:28N 37°54' W 122°22'0 0.0
2018-Jun-18 08:49N 37°54' W 122°22'0 0.0
2018-Jun-18 08:28N 37°54' W 122°22'0 0.0
2018-Jun-18 07:58N 37°54' W 122°22'0 0.0
2018-Jun-18 07:22N 37°54' W 122°22'0 0.0
2018-Jun-18 06:58N 37°54' W 122°22'0 0.0
2018-Jun-18 06:16N 37°54' W 122°22'0 0.0
2018-Jun-18 05:58N 37°54' W 122°22'0 0.0
2018-Jun-18 05:28N 37°54' W 122°22'0 0.0
2018-Jun-18 04:58N 37°54' W 122°22'0 0.0
2018-Jun-18 04:30N 37°54' W 122°22'0 0.0
2018-Jun-18 03:59N 37°54' W 122°22'1 1.6
2018-Jun-18 03:30N 37°54' W 122°23'2 3.6
2018-Jun-18 03:00N 37°56' W 122°25'0 0.4
2018-Jun-18 02:30N 37°55' W 122°25'2 2.9
2018-Jun-18 01:57N 37°54' W 122°25'2 3.3
2018-Jun-18 01:28N 37°55' W 122°25'0 0.0
2018-Jun-18 00:58N 37°55' W 122°25'0 0.0
2018-Jun-18 00:30N 37°55' W 122°25'0 0.7
2018-Jun-18 00:00N 37°55' W 122°25'3 7.0
2018-Jun-17 23:30N 37°52' W 122°25'5 9.4
2018-Jun-17 23:00N 37°48' W 122°22'3 6.2
2018-Jun-17 22:30N 37°45' W 122°20'0 0.1
2018-Jun-17 22:00N 37°45' W 122°20'4 8.5
2018-Jun-17 21:30N 37°49' W 122°21'0 0.3
2018-Jun-17 21:00N 37°49' W 122°21'4 8.1
2018-Jun-17 20:30N 37°45' W 122°20'0 0.1
2018-Jun-17 20:01N 37°45' W 122°20'0 0.1
2018-Jun-17 19:30N 37°45' W 122°20'0 0.0
2018-Jun-17 19:00N 37°45' W 122°20'0 0.1
2018-Jun-17 18:30N 37°45' W 122°21'0 0.2
2018-Jun-17 18:00N 37°45' W 122°21'0 0.1
2018-Jun-17 17:30N 37°45' W 122°21'0 0.0
2018-Jun-17 16:59N 37°45' W 122°21'2 4.7
2018-Jun-17 16:30N 37°47' W 122°21'2 3.6
2018-Jun-17 15:56N 37°49' W 122°22'0 0.0
2018-Jun-17 15:30N 37°49' W 122°22'0 0.1
2018-Jun-17 15:00N 37°49' W 122°22'3 5.5
2018-Jun-17 14:28N 37°46' W 122°21'0 0.0
2018-Jun-17 13:58N 37°46' W 122°21'0 0.0
2018-Jun-17 13:22N 37°46' W 122°21'0 0.0
2018-Jun-17 12:58N 37°46' W 122°21'0 0.0
2018-Jun-17 12:30N 37°46' W 122°21'0 0.0
2018-Jun-17 12:00N 37°46' W 122°21'0 0.0
2018-Jun-17 11:29N 37°46' W 122°21'0 0.2
2018-Jun-17 11:00N 37°46' W 122°21'0 0.4
2018-Jun-17 10:30N 37°46' W 122°21'1 2.5
2018-Jun-17 10:00N 37°47' W 122°22'4 8.1
2018-Jun-17 09:30N 37°51' W 122°24'4 7.3
2018-Jun-17 09:00N 37°54' W 122°25'3 5.2
2018-Jun-17 08:30N 37°54' W 122°22'0 0.0
2018-Jun-17 07:57N 37°54' W 122°22'0 0.0
2018-Jun-17 07:30N 37°54' W 122°22'0 0.0
2018-Jun-17 06:51N 37°54' W 122°22'0 0.0
2018-Jun-17 06:15N 37°54' W 122°22'0 0.0
2018-Jun-17 05:57N 37°54' W 122°22'0 0.0
2018-Jun-17 05:27N 37°54' W 122°22'0 0.0
2018-Jun-17 04:54N 37°54' W 122°22'0 0.0
2018-Jun-17 04:27N 37°54' W 122°22'0 0.0
2018-Jun-17 04:00N 37°54' W 122°22'1 1.2
2018-Jun-17 03:30N 37°55' W 122°22'1 1.2
2018-Jun-17 03:00N 37°54' W 122°22'0 0.0
2018-Jun-17 02:28N 37°54' W 122°22'0 0.5
2018-Jun-17 02:00N 37°54' W 122°22'2 4.9
2018-Jun-17 01:31N 37°55' W 122°25'1 1.4
2018-Jun-17 01:00N 37°54' W 122°25'2 3.9
2018-Jun-17 00:30N 37°54' W 122°23'0 0.6
2018-Jun-17 00:00N 37°54' W 122°22'0 0.0
2018-Jun-16 23:27N 37°54' W 122°22'0 0.0
2018-Jun-16 23:00N 37°54' W 122°22'0 0.0
2018-Jun-16 22:27N 37°54' W 122°22'0 0.0
2018-Jun-16 22:00N 37°54' W 122°22'0 0.0
2018-Jun-16 21:30N 37°54' W 122°22'0 0.0
2018-Jun-16 21:00N 37°54' W 122°22'0 0.0
2018-Jun-16 20:24N 37°54' W 122°22'0 0.0
2018-Jun-16 19:54N 37°54' W 122°22'1 1.5
2018-Jun-16 19:30N 37°54' W 122°23'5 9.2
2018-Jun-16 19:00N 37°59' W 122°26'2 3.2
2018-Jun-16 18:30N 37°60' W 122°25'611.0
2018-Jun-16 17:59N 38°03' W 122°18'813.1
2018-Jun-16 17:24N 38°02' W 122°09'1 1.1
2018-Jun-16 16:34N 38°02' W 122°08'2 6.0
2018-Jun-16 16:09N 38°03' W 122°11'1 7.2
2018-Jun-16 16:00N 38°03' W 122°12'4 6.9
2018-Jun-16 15:29N 38°03' W 122°17'3 6.9
2018-Jun-16 15:00N 38°02' W 122°20'3 6.8
2018-Jun-16 14:30N 38°01' W 122°24'3 6.8
2018-Jun-16 14:00N 37°57' W 122°26'2 4.0
2018-Jun-16 13:25N 37°55' W 122°25'0 0.0
2018-Jun-16 12:52N 37°55' W 122°25'0 0.0
2018-Jun-16 12:25N 37°55' W 122°25'0 0.0
2018-Jun-16 11:55N 37°55' W 122°25'0 0.0
2018-Jun-16 11:25N 37°55' W 122°25'0 0.0
2018-Jun-16 10:55N 37°55' W 122°25'0 0.0
2018-Jun-16 10:28N 37°55' W 122°25'0 0.0
2018-Jun-16 09:49N 37°55' W 122°25'0 0.0
2018-Jun-16 09:25N 37°55' W 122°25'0 0.0
2018-Jun-16 08:55N 37°55' W 122°25'0 0.0
2018-Jun-16 08:28N 37°55' W 122°25'0 0.0
2018-Jun-16 07:55N 37°55' W 122°25'0 0.0
2018-Jun-16 07:28N 37°55' W 122°25'0 0.0
2018-Jun-16 06:55N 37°55' W 122°25'0 0.0
2018-Jun-16 06:28N 37°55' W 122°25'0 0.0
2018-Jun-16 06:00N 37°55' W 122°25'0 0.0
2018-Jun-16 05:30N 37°55' W 122°25'0 0.0
2018-Jun-16 05:00N 37°55' W 122°25'0 0.0
2018-Jun-16 04:30N 37°55' W 122°25'0 0.0
2018-Jun-16 04:00N 37°55' W 122°25'0 0.0
2018-Jun-16 03:30N 37°55' W 122°25'0 0.0
2018-Jun-16 03:01N 37°55' W 122°25'0 0.0
2018-Jun-16 02:30N 37°55' W 122°25'0 0.0
2018-Jun-16 02:00N 37°55' W 122°25'0 0.2
2018-Jun-16 01:30N 37°55' W 122°24'0 0.7
2018-Jun-16 01:01N 37°55' W 122°25'2 3.4
2018-Jun-16 00:30N 37°54' W 122°25'2 2.8
2018-Jun-15 23:56N 37°55' W 122°25'0 0.0
2018-Jun-15 23:17N 37°55' W 122°25'0 0.0
2018-Jun-15 22:56N 37°55' W 122°25'0 0.0
2018-Jun-15 22:29N 37°55' W 122°25'0 0.0
2018-Jun-15 22:00N 37°55' W 122°25'2 4.6
2018-Jun-15 21:31N 37°53' W 122°25'1 1.6
2018-Jun-15 21:01N 37°54' W 122°25'1 2.7
2018-Jun-15 20:31N 37°55' W 122°25'1 1.1
2018-Jun-15 20:00N 37°56' W 122°25'0 0.2
2018-Jun-15 19:30N 37°55' W 122°25'4 7.6
2018-Jun-15 19:00N 37°59' W 122°25'510.0
2018-Jun-15 18:30N 38°03' W 122°20'5 1.8
2018-Jun-15 15:59N 38°03' W 122°15'2 2.4
2018-Jun-15 14:59N 38°06' W 122°16'1 2.4
2018-Jun-15 14:29N 38°05' W 122°15'3 5.5
2018-Jun-15 14:00N 38°03' W 122°18'4 6.6
2018-Jun-15 13:27N 38°02' W 122°22'3 6.4
2018-Jun-15 12:59N 37°60' W 122°25'3 5.9
2018-Jun-15 12:30N 37°57' W 122°26'3 5.7
2018-Jun-15 12:00N 37°55' W 122°24'2 3.3
2018-Jun-15 11:26N 37°54' W 122°22'0 0.2
2018-Jun-15 11:00N 37°54' W 122°22'0 0.6
2018-Jun-15 10:29N 37°54' W 122°22'0 0.0
2018-Jun-15 09:59N 37°54' W 122°22'0 0.0
2018-Jun-15 09:26N 37°54' W 122°22'0 0.0
2018-Jun-15 08:59N 37°54' W 122°22'0 0.0
2018-Jun-15 08:29N 37°54' W 122°22'0 0.0
2018-Jun-15 07:56N 37°54' W 122°22'0 0.0
2018-Jun-15 07:29N 37°54' W 122°22'1 2.4
2018-Jun-15 07:00N 37°54' W 122°24'5 9.8
2018-Jun-15 06:30N 37°50' W 122°28'3 6.3
2018-Jun-15 06:00N 37°49' W 122°31'2 4.1
2018-Jun-15 05:30N 37°49' W 122°29'4 7.4
2018-Jun-15 05:00N 37°52' W 122°25'4 7.1
2018-Jun-15 04:30N 37°55' W 122°25'1 1.4
2018-Jun-15 04:01N 37°56' W 122°25'0 0.0
2018-Jun-15 03:31N 37°56' W 122°25'2 5.0
2018-Jun-15 03:00N 37°54' W 122°22'0 0.0
2018-Jun-15 02:30N 37°54' W 122°22'0 0.0
2018-Jun-15 02:00N 37°54' W 122°22'0 0.0
2018-Jun-15 01:30N 37°54' W 122°22'0 0.0
2018-Jun-15 01:00N 37°54' W 122°22'0 0.0
2018-Jun-15 00:30N 37°54' W 122°22'0 0.0
2018-Jun-15 00:00N 37°54' W 122°22'0 0.0
2018-Jun-14 23:30N 37°54' W 122°22'0 0.0
2018-Jun-14 23:00N 37°54' W 122°22'0 0.0
2018-Jun-14 22:30N 37°54' W 122°22'0 0.0
2018-Jun-14 22:00N 37°54' W 122°22'0 0.5
2018-Jun-14 21:31N 37°54' W 122°22'2 3.7
2018-Jun-14 20:53N 37°55' W 122°25'0 0.0
2018-Jun-14 20:29N 37°55' W 122°25'0 0.0
2018-Jun-14 19:59N 37°55' W 122°25'0 0.0
2018-Jun-14 19:29N 37°55' W 122°25'0 0.0
2018-Jun-14 18:59N 37°55' W 122°25'0 0.0
2018-Jun-14 18:11N 37°55' W 122°25'0 0.0
2018-Jun-14 17:59N 37°55' W 122°25'0 0.0
2018-Jun-14 17:29N 37°55' W 122°25'0 0.0
2018-Jun-14 16:59N 37°55' W 122°25'0 0.0
2018-Jun-14 16:29N 37°55' W 122°25'0 0.0
2018-Jun-14 15:59N 37°55' W 122°25'0 0.0
2018-Jun-14 15:29N 37°55' W 122°25'0 0.0
2018-Jun-14 14:59N 37°55' W 122°25'0 0.0
2018-Jun-14 14:29N 37°55' W 122°25'0 0.0
2018-Jun-14 13:59N 37°55' W 122°25'0 0.0
2018-Jun-14 13:29N 37°55' W 122°25'0 0.0
2018-Jun-14 12:59N 37°55' W 122°25'0 0.0
2018-Jun-14 12:26N 37°55' W 122°25'0 0.0
2018-Jun-14 11:56N 37°55' W 122°25'0 0.0
2018-Jun-14 11:29N 37°55' W 122°25'0 0.0
2018-Jun-14 10:50N 37°55' W 122°25'0 0.0
2018-Jun-14 10:23N 37°55' W 122°25'0 0.0
2018-Jun-14 09:50N 37°55' W 122°25'0 1.0
2018-Jun-14 09:30N 37°55' W 122°25'0 0.1
2018-Jun-14 09:00N 37°56' W 122°25'0 0.1
2018-Jun-14 08:30N 37°56' W 122°25'1 2.2
2018-Jun-14 08:00N 37°54' W 122°25'3 6.2
2018-Jun-14 07:30N 37°51' W 122°25'3 6.4
2018-Jun-14 07:00N 37°49' W 122°27'5 9.1
2018-Jun-14 06:30N 37°53' W 122°26'2 3.1
2018-Jun-14 05:50N 37°55' W 122°25'0 0.0
2018-Jun-14 05:29N 37°55' W 122°25'0 0.0
2018-Jun-14 05:00N 37°55' W 122°25'1 2.3
2018-Jun-14 04:30N 37°54' W 122°25'1 2.5
2018-Jun-14 03:59N 37°56' W 122°25'0 0.4
2018-Jun-14 03:30N 37°55' W 122°25'2 4.8
2018-Jun-14 02:59N 37°54' W 122°22'0 0.0
2018-Jun-14 02:29N 37°54' W 122°22'0 0.0
2018-Jun-14 01:59N 37°54' W 122°22'0 0.0
2018-Jun-14 01:29N 37°54' W 122°22'0 0.0
2018-Jun-14 00:59N 37°54' W 122°22'0 0.0
2018-Jun-14 00:29N 37°54' W 122°22'0 0.0
2018-Jun-13 23:59N 37°54' W 122°22'0 0.0
2018-Jun-13 23:26N 37°54' W 122°22'0 0.0
2018-Jun-13 22:59N 37°54' W 122°22'0 0.0
2018-Jun-13 22:29N 37°54' W 122°22'0 0.3
2018-Jun-13 22:01N 37°54' W 122°22'2 4.2
2018-Jun-13 21:30N 37°53' W 122°25'4 8.7
2018-Jun-13 21:00N 37°50' W 122°22'4 7.2
2018-Jun-13 20:30N 37°48' W 122°18'0 0.2
2018-Jun-13 20:00N 37°48' W 122°18'0 0.0
2018-Jun-13 19:29N 37°48' W 122°18'0 0.0
2018-Jun-13 19:00N 37°48' W 122°18'0 0.0
2018-Jun-13 18:26N 37°48' W 122°18'0 0.0
2018-Jun-13 17:59N 37°48' W 122°18'0 0.0
2018-Jun-13 17:30N 37°48' W 122°18'0 0.0
2018-Jun-13 16:59N 37°48' W 122°18'0 0.0
2018-Jun-13 16:30N 37°48' W 122°18'0 0.1
2018-Jun-13 15:59N 37°48' W 122°18'0 0.0
2018-Jun-13 15:30N 37°48' W 122°18'0 0.1
2018-Jun-13 15:00N 37°48' W 122°18'0 0.0
2018-Jun-13 14:30N 37°48' W 122°18'2 3.7
2018-Jun-13 14:00N 37°48' W 122°20'2 3.2
2018-Jun-13 13:30N 37°49' W 122°22'2 4.2
2018-Jun-13 13:00N 37°48' W 122°20'0 1.0
2018-Jun-13 12:30N 37°48' W 122°19'0 0.5
2018-Jun-13 12:00N 37°48' W 122°19'3 6.0
2018-Jun-13 11:30N 37°49' W 122°23'2 3.3
2018-Jun-13 11:00N 37°50' W 122°24'5 9.9
2018-Jun-13 10:30N 37°55' W 122°25'0 0.8
2018-Jun-13 10:00N 37°55' W 122°24'0 0.1
2018-Jun-13 09:27N 37°55' W 122°25'0 0.0
2018-Jun-13 08:57N 37°55' W 122°25'0 0.0
2018-Jun-13 08:27N 37°55' W 122°25'0 0.0
2018-Jun-13 07:57N 37°55' W 122°25'0 0.0
2018-Jun-13 06:57N 37°55' W 122°25'0 0.0
2018-Jun-13 06:27N 37°55' W 122°25'0 0.0
2018-Jun-13 06:00N 37°55' W 122°25'0 0.5
2018-Jun-13 05:31N 37°55' W 122°25'0 0.2
2018-Jun-13 05:01N 37°56' W 122°25'1 1.7
2018-Jun-13 04:31N 37°55' W 122°25'4 8.1
2018-Jun-13 04:01N 37°51' W 122°25'2 4.4
2018-Jun-13 03:30N 37°51' W 122°27'4 8.2
2018-Jun-13 03:00N 37°54' W 122°25'1 2.0
2018-Jun-13 02:25N 37°55' W 122°25'0 0.0
2018-Jun-13 01:58N 37°55' W 122°25'0 0.0
2018-Jun-13 01:25N 37°55' W 122°25'0 0.0
2018-Jun-13 00:58N 37°55' W 122°25'0 0.0
2018-Jun-13 00:25N 37°55' W 122°25'0 0.0
2018-Jun-12 23:55N 37°55' W 122°25'0 0.1
2018-Jun-12 23:19N 37°55' W 122°24'0 0.1
2018-Jun-12 22:55N 37°55' W 122°25'0 0.0
2018-Jun-12 22:28N 37°55' W 122°25'0 0.0
2018-Jun-12 21:58N 37°55' W 122°25'0 0.0
2018-Jun-12 21:30N 37°55' W 122°25'0 0.0
2018-Jun-12 21:00N 37°55' W 122°25'0 0.3
2018-Jun-12 20:31N 37°55' W 122°25'0 0.0
2018-Jun-12 19:58N 37°55' W 122°25'1 1.6
2018-Jun-12 19:31N 37°55' W 122°25'1 2.9
2018-Jun-12 19:01N 37°54' W 122°24'1 2.2
2018-Jun-12 18:29N 37°54' W 122°22'0 0.0
2018-Jun-12 17:59N 37°54' W 122°22'0 0.0
2018-Jun-12 17:29N 37°54' W 122°22'0 0.0
2018-Jun-12 16:59N 37°54' W 122°22'0 0.0
2018-Jun-12 16:23N 37°54' W 122°22'0 0.0
2018-Jun-12 15:59N 37°54' W 122°22'0 0.0
2018-Jun-12 15:29N 37°54' W 122°22'0 0.0
2018-Jun-12 14:59N 37°54' W 122°22'0 0.0
2018-Jun-12 14:29N 37°54' W 122°22'0 0.0
2018-Jun-12 13:59N 37°54' W 122°22'0 0.0
2018-Jun-12 13:29N 37°54' W 122°22'0 0.0
2018-Jun-12 12:59N 37°54' W 122°22'0 0.0
2018-Jun-12 12:29N 37°54' W 122°22'0 0.0
2018-Jun-12 11:56N 37°54' W 122°22'0 0.0
2018-Jun-12 11:29N 37°54' W 122°22'0 0.0
2018-Jun-12 10:56N 37°54' W 122°22'0 0.0
2018-Jun-12 10:29N 37°54' W 122°22'0 0.0
2018-Jun-12 09:59N 37°54' W 122°22'0 0.0
2018-Jun-12 09:29N 37°54' W 122°22'0 0.0
2018-Jun-12 08:59N 37°54' W 122°22'0 0.0
2018-Jun-12 08:29N 37°54' W 122°22'0 0.0
2018-Jun-12 07:53N 37°54' W 122°22'0 0.0
2018-Jun-12 07:29N 37°54' W 122°22'0 0.0
2018-Jun-12 06:59N 37°54' W 122°22'0 0.0
2018-Jun-12 06:29N 37°54' W 122°22'0 0.0
2018-Jun-12 05:59N 37°54' W 122°22'0 0.0
2018-Jun-12 05:29N 37°54' W 122°22'0 0.0
2018-Jun-12 04:59N 37°54' W 122°22'0 0.0
2018-Jun-12 04:29N 37°54' W 122°22'0 0.0
2018-Jun-12 03:59N 37°54' W 122°22'0 0.0
2018-Jun-12 03:29N 37°54' W 122°22'0 0.0
2018-Jun-12 02:59N 37°54' W 122°22'0 0.0
2018-Jun-12 02:29N 37°54' W 122°22'0 0.0
2018-Jun-12 01:59N 37°54' W 122°22'0 0.0
2018-Jun-12 01:29N 37°54' W 122°22'0 0.0
2018-Jun-12 00:56N 37°54' W 122°22'0 0.0
2018-Jun-12 00:29N 37°54' W 122°22'0 0.0
2018-Jun-11 23:59N 37°54' W 122°22'0 0.0
2018-Jun-11 23:26N 37°54' W 122°22'0 0.0
2018-Jun-11 22:56N 37°54' W 122°22'0 0.0
2018-Jun-11 22:29N 37°54' W 122°22'0 0.0
2018-Jun-11 21:59N 37°54' W 122°22'0 0.0
2018-Jun-11 21:29N 37°54' W 122°22'0 0.0
2018-Jun-11 20:59N 37°54' W 122°22'0 0.0
2018-Jun-11 20:29N 37°54' W 122°22'0 0.0
2018-Jun-11 19:59N 37°54' W 122°22'0 0.0
2018-Jun-11 19:29N 37°54' W 122°22'0 0.0
2018-Jun-11 18:59N 37°54' W 122°22'0 0.0
2018-Jun-11 18:26N 37°54' W 122°22'0 0.0
2018-Jun-11 17:59N 37°54' W 122°22'0 0.0
2018-Jun-11 17:29N 37°54' W 122°22'0 0.0
2018-Jun-11 16:59N 37°54' W 122°22'0 0.0
2018-Jun-11 16:29N 37°54' W 122°22'0 0.0
2018-Jun-11 15:59N 37°54' W 122°22'2 4.5
2018-Jun-11 15:30N 37°55' W 122°25'0 0.4
2018-Jun-11 15:00N 37°55' W 122°25'1 1.1
2018-Jun-11 14:30N 37°55' W 122°25'3 5.4
2018-Jun-11 14:01N 37°53' W 122°25'3 6.5
2018-Jun-11 13:30N 37°49' W 122°25'4 7.5
2018-Jun-11 13:00N 37°49' W 122°29'1 2.5
2018-Jun-11 12:30N 37°48' W 122°30'0 0.1
2018-Jun-11 11:59N 37°48' W 122°30'0 0.3
2018-Jun-11 11:29N 37°48' W 122°30'0 0.2
2018-Jun-11 10:59N 37°48' W 122°30'1 2.0
2018-Jun-11 10:31N 37°49' W 122°30'5 9.9
2018-Jun-11 10:00N 37°53' W 122°26'3 6.6
2018-Jun-11 09:30N 37°54' W 122°22'0 0.0
2018-Jun-11 09:00N 37°54' W 122°22'0 0.0
2018-Jun-11 08:24N 37°54' W 122°22'0 0.0
2018-Jun-11 08:00N 37°54' W 122°22'0 0.0
2018-Jun-11 07:30N 37°54' W 122°22'0 0.0
2018-Jun-11 07:00N 37°54' W 122°22'0 0.0
2018-Jun-11 06:24N 37°54' W 122°22'0 0.0
2018-Jun-11 06:00N 37°54' W 122°22'0 0.0
2018-Jun-11 05:30N 37°54' W 122°22'0 0.0
2018-Jun-11 05:00N 37°54' W 122°22'0 0.0
2018-Jun-11 04:30N 37°54' W 122°22'0 0.0
2018-Jun-11 04:00N 37°54' W 122°22'0 0.0
2018-Jun-11 03:27N 37°54' W 122°22'0 0.0
2018-Jun-11 02:57N 37°54' W 122°22'0 0.0
2018-Jun-11 02:30N 37°54' W 122°22'0 0.0
2018-Jun-11 02:00N 37°54' W 122°22'0 0.0
2018-Jun-11 01:30N 37°54' W 122°22'0 0.0
2018-Jun-11 01:00N 37°54' W 122°22'0 0.0
2018-Jun-11 00:30N 37°54' W 122°22'0 0.0
2018-Jun-11 00:00N 37°54' W 122°22'0 0.0
2018-Jun-10 23:30N 37°54' W 122°22'0 0.0
2018-Jun-10 23:00N 37°54' W 122°22'0 0.0
2018-Jun-10 22:30N 37°54' W 122°22'0 0.0
2018-Jun-10 22:00N 37°54' W 122°22'0 0.0
2018-Jun-10 21:30N 37°54' W 122°22'0 0.0
2018-Jun-10 20:57N 37°54' W 122°22'0 0.0
2018-Jun-10 20:28N 37°54' W 122°22'3 5.6
2018-Jun-10 20:00N 37°55' W 122°25'510.3
2018-Jun-10 19:30N 38°01' W 122°24'510.5
2018-Jun-10 19:00N 38°03' W 122°18'5 9.0
2018-Jun-10 18:30N 38°03' W 122°12'3 1.5
2018-Jun-10 16:22N 38°02' W 122°09'4 7.6
2018-Jun-10 15:53N 38°04' W 122°13'3 9.1
2018-Jun-10 15:31N 38°03' W 122°17'2 4.0
2018-Jun-10 15:00N 38°03' W 122°20'8 8.4
2018-Jun-10 14:00N 37°56' W 122°25'3 5.0
2018-Jun-10 13:28N 37°54' W 122°22'0 0.0
2018-Jun-10 12:58N 37°54' W 122°22'0 0.0
2018-Jun-10 12:28N 37°54' W 122°22'0 0.0
2018-Jun-10 11:58N 37°54' W 122°22'0 0.0
2018-Jun-10 11:28N 37°54' W 122°22'0 0.0
2018-Jun-10 10:58N 37°54' W 122°22'0 0.0
2018-Jun-10 10:25N 37°54' W 122°22'0 0.0
2018-Jun-10 09:58N 37°54' W 122°22'0 0.0
2018-Jun-10 09:28N 37°54' W 122°22'0 0.0
2018-Jun-10 08:55N 37°54' W 122°22'0 0.0
2018-Jun-10 08:28N 37°54' W 122°22'0 0.0
2018-Jun-10 07:58N 37°54' W 122°22'0 0.0
2018-Jun-10 07:25N 37°54' W 122°22'0 0.0
2018-Jun-10 06:58N 37°54' W 122°22'0 0.0
2018-Jun-10 06:28N 37°54' W 122°22'0 0.0
2018-Jun-10 06:00N 37°54' W 122°22'0 0.0
2018-Jun-10 05:29N 37°54' W 122°22'0 0.0
2018-Jun-10 05:00N 37°54' W 122°22'0 0.0
2018-Jun-10 04:30N 37°54' W 122°22'0 0.0
2018-Jun-10 04:00N 37°54' W 122°22'2 4.1
2018-Jun-10 03:30N 37°55' W 122°25'0 0.8
2018-Jun-10 03:00N 37°55' W 122°25'3 6.4
2018-Jun-10 02:30N 37°52' W 122°25'3 6.2
2018-Jun-10 02:00N 37°49' W 122°23'3 5.6
2018-Jun-10 01:30N 37°47' W 122°22'1 2.9
2018-Jun-10 01:00N 37°45' W 122°21'1 1.3
2018-Jun-10 00:31N 37°46' W 122°21'2 4.5
2018-Jun-10 00:00N 37°48' W 122°21'0 0.0
2018-Jun-09 23:30N 37°48' W 122°21'1 2.2
2018-Jun-09 23:00N 37°48' W 122°19'0 1.0
2018-Jun-09 22:30N 37°48' W 122°19'1 2.2
2018-Jun-09 22:00N 37°48' W 122°17'2 3.2
2018-Jun-09 21:30N 37°48' W 122°19'4 7.2
2018-Jun-09 21:00N 37°49' W 122°24'2 4.0
2018-Jun-09 20:30N 37°51' W 122°24'4 8.3
2018-Jun-09 20:00N 37°55' W 122°25'0 0.0
2018-Jun-09 19:24N 37°55' W 122°25'0 0.0
2018-Jun-09 19:00N 37°55' W 122°25'0 0.1
2018-Jun-09 18:30N 37°55' W 122°24'0 0.0
2018-Jun-09 18:00N 37°55' W 122°24'0 0.5
2018-Jun-09 17:30N 37°55' W 122°25'0 0.6
2018-Jun-09 17:00N 37°55' W 122°25'3 5.0
2018-Jun-09 16:30N 37°53' W 122°25'2 3.6
2018-Jun-09 16:00N 37°55' W 122°24'2 2.8
2018-Jun-09 15:26N 37°54' W 122°22'0 0.0
2018-Jun-09 14:29N 37°54' W 122°22'0 0.0
2018-Jun-09 13:59N 37°54' W 122°22'0 0.0
2018-Jun-09 13:29N 37°54' W 122°22'0 0.0
2018-Jun-09 12:53N 37°54' W 122°22'0 0.0
2018-Jun-09 12:29N 37°54' W 122°22'0 0.0
2018-Jun-09 11:59N 37°54' W 122°22'0 0.0
2018-Jun-09 11:29N 37°54' W 122°22'0 0.0
2018-Jun-09 10:59N 37°54' W 122°22'1 1.9
2018-Jun-09 10:30N 37°55' W 122°22'1 1.6
2018-Jun-09 10:00N 37°54' W 122°22'0 0.9
2018-Jun-09 09:30N 37°54' W 122°22'0 0.0
2018-Jun-09 09:00N 37°54' W 122°22'0 0.0
2018-Jun-09 08:30N 37°54' W 122°22'0 0.0
2018-Jun-09 07:57N 37°54' W 122°22'0 0.0
2018-Jun-09 07:27N 37°54' W 122°22'0 0.0
2018-Jun-09 06:57N 37°54' W 122°22'0 0.0
2018-Jun-09 06:30N 37°54' W 122°22'0 0.0
2018-Jun-09 06:00N 37°54' W 122°22'0 0.0
2018-Jun-09 05:27N 37°54' W 122°22'0 0.0
2018-Jun-09 05:00N 37°54' W 122°22'0 0.5
2018-Jun-09 04:30N 37°54' W 122°23'2 3.5
2018-Jun-09 04:00N 37°55' W 122°25'1 1.1
2018-Jun-09 03:29N 37°55' W 122°25'2 3.7
2018-Jun-09 03:00N 37°53' W 122°25'2 3.8
2018-Jun-09 02:30N 37°55' W 122°25'0 0.0
2018-Jun-09 02:00N 37°55' W 122°25'0 0.0
2018-Jun-09 01:30N 37°55' W 122°25'0 0.0
2018-Jun-09 00:54N 37°55' W 122°25'0 0.0
2018-Jun-09 00:27N 37°55' W 122°25'0 0.0
2018-Jun-09 00:00N 37°55' W 122°25'0 0.0
2018-Jun-08 23:27N 37°55' W 122°25'0 0.0
2018-Jun-08 23:00N 37°55' W 122°25'0 0.0
2018-Jun-08 22:27N 37°55' W 122°25'0 0.0
2018-Jun-08 21:57N 37°55' W 122°25'0 0.0
2018-Jun-08 21:30N 37°55' W 122°25'  
Track history (hours):
 
Tides and Currents Weather Stations Pressure Air Temp Water Temp Dewpoint Dewpoint Depression Visibility Wind Speed Wind Dir Waves Ship Positions

America

Owner: Foss Maritime Company, Seattle, WA. More information available from US FCC via Universal Licensing System and Coast Guard Vessel Documentation Center.

Last reported at 2018-Jun-18 20:58 UTC. Time now 2018-Jun-18 21:17 UTC.
Position N 37°48' W 122°24'.

Length 30 m; draft 5.2 m.

Type: Tug. MMSI: 367384610.

Date/timePositionNaut miles runAvg speedWind from/ knotsBaromVisibWave heightAir tempDewpointWater temp
2018-Jun-18 20:58N 37°48' W 122°24'0 0.0
2018-Jun-18 20:28N 37°48' W 122°24'0 0.0
2018-Jun-18 19:58N 37°48' W 122°24'0 0.0
2018-Jun-18 19:30N 37°48' W 122°24'2 3.6
2018-Jun-18 19:00N 37°48' W 122°22'4 7.7
2018-Jun-18 18:30N 37°49' W 122°26'3 6.8
2018-Jun-18 18:00N 37°48' W 122°30'0 0.7
2018-Jun-18 17:30N 37°48' W 122°30'1 1.3
2018-Jun-18 17:00N 37°48' W 122°30'510.1
2018-Jun-18 16:30N 37°50' W 122°24'2 3.6
2018-Jun-18 15:58N 37°49' W 122°22'0 0.1
2018-Jun-18 15:28N 37°49' W 122°22'0 0.0
2018-Jun-18 14:55N 37°49' W 122°22'0 0.0
2018-Jun-18 14:28N 37°49' W 122°22'0 0.1
2018-Jun-18 14:00N 37°49' W 122°22'2 3.1
2018-Jun-18 13:30N 37°49' W 122°20'0 0.0
2018-Jun-18 13:00N 37°49' W 122°20'0 0.8
2018-Jun-18 12:30N 37°49' W 122°20'3 6.4
2018-Jun-18 12:01N 37°49' W 122°24'5 8.8
2018-Jun-18 11:25N 37°54' W 122°24'1 2.1
2018-Jun-18 10:58N 37°54' W 122°22'0 0.0
2018-Jun-18 10:28N 37°54' W 122°22'0 0.0
2018-Jun-18 09:58N 37°54' W 122°22'0 0.0
2018-Jun-18 09:28N 37°54' W 122°22'0 0.0
2018-Jun-18 08:49N 37°54' W 122°22'0 0.0
2018-Jun-18 08:28N 37°54' W 122°22'0 0.0
2018-Jun-18 07:58N 37°54' W 122°22'0 0.0
2018-Jun-18 07:22N 37°54' W 122°22'0 0.0
2018-Jun-18 06:58N 37°54' W 122°22'0 0.0
2018-Jun-18 06:16N 37°54' W 122°22'0 0.0
2018-Jun-18 05:58N 37°54' W 122°22'0 0.0
2018-Jun-18 05:28N 37°54' W 122°22'0 0.0
2018-Jun-18 04:58N 37°54' W 122°22'0 0.0
2018-Jun-18 04:30N 37°54' W 122°22'0 0.0
2018-Jun-18 03:59N 37°54' W 122°22'1 1.6
2018-Jun-18 03:30N 37°54' W 122°23'2 3.6
2018-Jun-18 03:00N 37°56' W 122°25'0 0.4
2018-Jun-18 02:30N 37°55' W 122°25'2 2.9
2018-Jun-18 01:57N 37°54' W 122°25'2 3.3
2018-Jun-18 01:28N 37°55' W 122°25'0 0.0
2018-Jun-18 00:58N 37°55' W 122°25'0 0.0
2018-Jun-18 00:30N 37°55' W 122°25'0 0.7
2018-Jun-18 00:00N 37°55' W 122°25'3 7.0
2018-Jun-17 23:30N 37°52' W 122°25'5 9.4
2018-Jun-17 23:00N 37°48' W 122°22'3 6.2
2018-Jun-17 22:30N 37°45' W 122°20'0 0.1
2018-Jun-17 22:00N 37°45' W 122°20'4 8.5
2018-Jun-17 21:30N 37°49' W 122°21'0 0.3
2018-Jun-17 21:00N 37°49' W 122°21'4 8.1
2018-Jun-17 20:30N 37°45' W 122°20'0 0.1
2018-Jun-17 20:01N 37°45' W 122°20'0 0.1
2018-Jun-17 19:30N 37°45' W 122°20'0 0.0
2018-Jun-17 19:00N 37°45' W 122°20'0 0.1
2018-Jun-17 18:30N 37°45' W 122°21'0 0.2
2018-Jun-17 18:00N 37°45' W 122°21'0 0.1
2018-Jun-17 17:30N 37°45' W 122°21'0 0.0
2018-Jun-17 16:59N 37°45' W 122°21'2 4.7
2018-Jun-17 16:30N 37°47' W 122°21'2 3.6
2018-Jun-17 15:56N 37°49' W 122°22'0 0.0
2018-Jun-17 15:30N 37°49' W 122°22'0 0.1
2018-Jun-17 15:00N 37°49' W 122°22'3 5.5
2018-Jun-17 14:28N 37°46' W 122°21'0 0.0
2018-Jun-17 13:58N 37°46' W 122°21'0 0.0
2018-Jun-17 13:22N 37°46' W 122°21'0 0.0
2018-Jun-17 12:58N 37°46' W 122°21'0 0.0
2018-Jun-17 12:30N 37°46' W 122°21'0 0.0
2018-Jun-17 12:00N 37°46' W 122°21'0 0.0
2018-Jun-17 11:29N 37°46' W 122°21'0 0.2
2018-Jun-17 11:00N 37°46' W 122°21'0 0.4
2018-Jun-17 10:30N 37°46' W 122°21'1 2.5
2018-Jun-17 10:00N 37°47' W 122°22'4 8.1
2018-Jun-17 09:30N 37°51' W 122°24'4 7.3
2018-Jun-17 09:00N 37°54' W 122°25'3 5.2
2018-Jun-17 08:30N 37°54' W 122°22'0 0.0
2018-Jun-17 07:57N 37°54' W 122°22'0 0.0
2018-Jun-17 07:30N 37°54' W 122°22'0 0.0
2018-Jun-17 06:51N 37°54' W 122°22'0 0.0
2018-Jun-17 06:15N 37°54' W 122°22'0 0.0
2018-Jun-17 05:57N 37°54' W 122°22'0 0.0
2018-Jun-17 05:27N 37°54' W 122°22'0 0.0
2018-Jun-17 04:54N 37°54' W 122°22'0 0.0
2018-Jun-17 04:27N 37°54' W 122°22'0 0.0
2018-Jun-17 04:00N 37°54' W 122°22'1 1.2
2018-Jun-17 03:30N 37°55' W 122°22'1 1.2
2018-Jun-17 03:00N 37°54' W 122°22'0 0.0
2018-Jun-17 02:28N 37°54' W 122°22'0 0.5
2018-Jun-17 02:00N 37°54' W 122°22'2 4.9
2018-Jun-17 01:31N 37°55' W 122°25'1 1.4
2018-Jun-17 01:00N 37°54' W 122°25'2 3.9
2018-Jun-17 00:30N 37°54' W 122°23'0 0.6
2018-Jun-17 00:00N 37°54' W 122°22'0 0.0
2018-Jun-16 23:27N 37°54' W 122°22'0 0.0
2018-Jun-16 23:00N 37°54' W 122°22'0 0.0
2018-Jun-16 22:27N 37°54' W 122°22'0 0.0
2018-Jun-16 22:00N 37°54' W 122°22'0 0.0
2018-Jun-16 21:30N 37°54' W 122°22'0 0.0
2018-Jun-16 21:00N 37°54' W 122°22'0 0.0
2018-Jun-16 20:24N 37°54' W 122°22'0 0.0
2018-Jun-16 19:54N 37°54' W 122°22'1 1.5
2018-Jun-16 19:30N 37°54' W 122°23'5 9.2
2018-Jun-16 19:00N 37°59' W 122°26'2 3.2
2018-Jun-16 18:30N 37°60' W 122°25'611.0
2018-Jun-16 17:59N 38°03' W 122°18'813.1
2018-Jun-16 17:24N 38°02' W 122°09'1 1.1
2018-Jun-16 16:34N 38°02' W 122°08'2 6.0
2018-Jun-16 16:09N 38°03' W 122°11'1 7.2
2018-Jun-16 16:00N 38°03' W 122°12'4 6.9
2018-Jun-16 15:29N 38°03' W 122°17'3 6.9
2018-Jun-16 15:00N 38°02' W 122°20'3 6.8
2018-Jun-16 14:30N 38°01' W 122°24'3 6.8
2018-Jun-16 14:00N 37°57' W 122°26'2 4.0
2018-Jun-16 13:25N 37°55' W 122°25'0 0.0
2018-Jun-16 12:52N 37°55' W 122°25'0 0.0
2018-Jun-16 12:25N 37°55' W 122°25'0 0.0
2018-Jun-16 11:55N 37°55' W 122°25'0 0.0
2018-Jun-16 11:25N 37°55' W 122°25'0 0.0
2018-Jun-16 10:55N 37°55' W 122°25'0 0.0
2018-Jun-16 10:28N 37°55' W 122°25'0 0.0
2018-Jun-16 09:49N 37°55' W 122°25'0 0.0
2018-Jun-16 09:25N 37°55' W 122°25'0 0.0
2018-Jun-16 08:55N 37°55' W 122°25'0 0.0
2018-Jun-16 08:28N 37°55' W 122°25'0 0.0
2018-Jun-16 07:55N 37°55' W 122°25'0 0.0
2018-Jun-16 07:28N 37°55' W 122°25'0 0.0
2018-Jun-16 06:55N 37°55' W 122°25'0 0.0
2018-Jun-16 06:28N 37°55' W 122°25'0 0.0
2018-Jun-16 06:00N 37°55' W 122°25'0 0.0
2018-Jun-16 05:30N 37°55' W 122°25'0 0.0
2018-Jun-16 05:00N 37°55' W 122°25'0 0.0
2018-Jun-16 04:30N 37°55' W 122°25'0 0.0
2018-Jun-16 04:00N 37°55' W 122°25'0 0.0
2018-Jun-16 03:30N 37°55' W 122°25'0 0.0
2018-Jun-16 03:01N 37°55' W 122°25'0 0.0
2018-Jun-16 02:30N 37°55' W 122°25'0 0.0
2018-Jun-16 02:00N 37°55' W 122°25'0 0.2
2018-Jun-16 01:30N 37°55' W 122°24'0 0.7
2018-Jun-16 01:01N 37°55' W 122°25'2 3.4
2018-Jun-16 00:30N 37°54' W 122°25'2 2.8
2018-Jun-15 23:56N 37°55' W 122°25'0 0.0
2018-Jun-15 23:17N 37°55' W 122°25'0 0.0
2018-Jun-15 22:56N 37°55' W 122°25'0 0.0
2018-Jun-15 22:29N 37°55' W 122°25'0 0.0
2018-Jun-15 22:00N 37°55' W 122°25'2 4.6
2018-Jun-15 21:31N 37°53' W 122°25'1 1.6
2018-Jun-15 21:01N 37°54' W 122°25'1 2.7
2018-Jun-15 20:31N 37°55' W 122°25'1 1.1
2018-Jun-15 20:00N 37°56' W 122°25'0 0.2
2018-Jun-15 19:30N 37°55' W 122°25'4 7.6
2018-Jun-15 19:00N 37°59' W 122°25'510.0
2018-Jun-15 18:30N 38°03' W 122°20'5 1.8
2018-Jun-15 15:59N 38°03' W 122°15'2 2.4
2018-Jun-15 14:59N 38°06' W 122°16'1 2.4
2018-Jun-15 14:29N 38°05' W 122°15'3 5.5
2018-Jun-15 14:00N 38°03' W 122°18'4 6.6
2018-Jun-15 13:27N 38°02' W 122°22'3 6.4
2018-Jun-15 12:59N 37°60' W 122°25'3 5.9
2018-Jun-15 12:30N 37°57' W 122°26'3 5.7
2018-Jun-15 12:00N 37°55' W 122°24'2 3.3
2018-Jun-15 11:26N 37°54' W 122°22'0 0.2
2018-Jun-15 11:00N 37°54' W 122°22'0 0.6
2018-Jun-15 10:29N 37°54' W 122°22'0 0.0
2018-Jun-15 09:59N 37°54' W 122°22'0 0.0
2018-Jun-15 09:26N 37°54' W 122°22'0 0.0
2018-Jun-15 08:59N 37°54' W 122°22'0 0.0
2018-Jun-15 08:29N 37°54' W 122°22'0 0.0
2018-Jun-15 07:56N 37°54' W 122°22'0 0.0
2018-Jun-15 07:29N 37°54' W 122°22'1 2.4
2018-Jun-15 07:00N 37°54' W 122°24'5 9.8
2018-Jun-15 06:30N 37°50' W 122°28'3 6.3
2018-Jun-15 06:00N 37°49' W 122°31'2 4.1
2018-Jun-15 05:30N 37°49' W 122°29'4 7.4
2018-Jun-15 05:00N 37°52' W 122°25'4 7.1
2018-Jun-15 04:30N 37°55' W 122°25'1 1.4
2018-Jun-15 04:01N 37°56' W 122°25'0 0.0
2018-Jun-15 03:31N 37°56' W 122°25'2 5.0
2018-Jun-15 03:00N 37°54' W 122°22'0 0.0
2018-Jun-15 02:30N 37°54' W 122°22'0 0.0
2018-Jun-15 02:00N 37°54' W 122°22'0 0.0
2018-Jun-15 01:30N 37°54' W 122°22'0 0.0
2018-Jun-15 01:00N 37°54' W 122°22'0 0.0
2018-Jun-15 00:30N 37°54' W 122°22'0 0.0
2018-Jun-15 00:00N 37°54' W 122°22'0 0.0
2018-Jun-14 23:30N 37°54' W 122°22'0 0.0
2018-Jun-14 23:00N 37°54' W 122°22'0 0.0
2018-Jun-14 22:30N 37°54' W 122°22'0 0.0
2018-Jun-14 22:00N 37°54' W 122°22'0 0.5
2018-Jun-14 21:31N 37°54' W 122°22'2 3.7
2018-Jun-14 20:53N 37°55' W 122°25'0 0.0
2018-Jun-14 20:29N 37°55' W 122°25'0 0.0
2018-Jun-14 19:59N 37°55' W 122°25'0 0.0
2018-Jun-14 19:29N 37°55' W 122°25'0 0.0
2018-Jun-14 18:59N 37°55' W 122°25'0 0.0
2018-Jun-14 18:11N 37°55' W 122°25'0 0.0
2018-Jun-14 17:59N 37°55' W 122°25'0 0.0
2018-Jun-14 17:29N 37°55' W 122°25'0 0.0
2018-Jun-14 16:59N 37°55' W 122°25'0 0.0
2018-Jun-14 16:29N 37°55' W 122°25'0 0.0
2018-Jun-14 15:59N 37°55' W 122°25'0 0.0
2018-Jun-14 15:29N 37°55' W 122°25'0 0.0
2018-Jun-14 14:59N 37°55' W 122°25'0 0.0
2018-Jun-14 14:29N 37°55' W 122°25'0 0.0
2018-Jun-14 13:59N 37°55' W 122°25'0 0.0
2018-Jun-14 13:29N 37°55' W 122°25'0 0.0
2018-Jun-14 12:59N 37°55' W 122°25'0 0.0
2018-Jun-14 12:26N 37°55' W 122°25'0 0.0
2018-Jun-14 11:56N 37°55' W 122°25'0 0.0
2018-Jun-14 11:29N 37°55' W 122°25'0 0.0
2018-Jun-14 10:50N 37°55' W 122°25'0 0.0
2018-Jun-14 10:23N 37°55' W 122°25'0 0.0
2018-Jun-14 09:50N 37°55' W 122°25'0 1.0
2018-Jun-14 09:30N 37°55' W 122°25'0 0.1
2018-Jun-14 09:00N 37°56' W 122°25'0 0.1
2018-Jun-14 08:30N 37°56' W 122°25'1 2.2
2018-Jun-14 08:00N 37°54' W 122°25'3 6.2
2018-Jun-14 07:30N 37°51' W 122°25'3 6.4
2018-Jun-14 07:00N 37°49' W 122°27'5 9.1
2018-Jun-14 06:30N 37°53' W 122°26'2 3.1
2018-Jun-14 05:50N 37°55' W 122°25'0 0.0
2018-Jun-14 05:29N 37°55' W 122°25'0 0.0
2018-Jun-14 05:00N 37°55' W 122°25'1 2.3
2018-Jun-14 04:30N 37°54' W 122°25'1 2.5
2018-Jun-14 03:59N 37°56' W 122°25'0 0.4
2018-Jun-14 03:30N 37°55' W 122°25'2 4.8
2018-Jun-14 02:59N 37°54' W 122°22'0 0.0
2018-Jun-14 02:29N 37°54' W 122°22'0 0.0
2018-Jun-14 01:59N 37°54' W 122°22'0 0.0
2018-Jun-14 01:29N 37°54' W 122°22'0 0.0
2018-Jun-14 00:59N 37°54' W 122°22'0 0.0
2018-Jun-14 00:29N 37°54' W 122°22'0 0.0
2018-Jun-13 23:59N 37°54' W 122°22'0 0.0
2018-Jun-13 23:26N 37°54' W 122°22'0 0.0
2018-Jun-13 22:59N 37°54' W 122°22'0 0.0
2018-Jun-13 22:29N 37°54' W 122°22'0 0.3
2018-Jun-13 22:01N 37°54' W 122°22'2 4.2
2018-Jun-13 21:30N 37°53' W 122°25'4 8.7
2018-Jun-13 21:00N 37°50' W 122°22'4 7.2
2018-Jun-13 20:30N 37°48' W 122°18'0 0.2
2018-Jun-13 20:00N 37°48' W 122°18'0 0.0
2018-Jun-13 19:29N 37°48' W 122°18'0 0.0
2018-Jun-13 19:00N 37°48' W 122°18'0 0.0
2018-Jun-13 18:26N 37°48' W 122°18'0 0.0
2018-Jun-13 17:59N 37°48' W 122°18'0 0.0
2018-Jun-13 17:30N 37°48' W 122°18'0 0.0
2018-Jun-13 16:59N 37°48' W 122°18'0 0.0
2018-Jun-13 16:30N 37°48' W 122°18'0 0.1
2018-Jun-13 15:59N 37°48' W 122°18'0 0.0
2018-Jun-13 15:30N 37°48' W 122°18'0 0.1
2018-Jun-13 15:00N 37°48' W 122°18'0 0.0
2018-Jun-13 14:30N 37°48' W 122°18'2 3.7
2018-Jun-13 14:00N 37°48' W 122°20'2 3.2
2018-Jun-13 13:30N 37°49' W 122°22'2 4.2
2018-Jun-13 13:00N 37°48' W 122°20'0 1.0
2018-Jun-13 12:30N 37°48' W 122°19'0 0.5
2018-Jun-13 12:00N 37°48' W 122°19'3 6.0
2018-Jun-13 11:30N 37°49' W 122°23'2 3.3
2018-Jun-13 11:00N 37°50' W 122°24'5 9.9
2018-Jun-13 10:30N 37°55' W 122°25'0 0.8
2018-Jun-13 10:00N 37°55' W 122°24'0 0.1
2018-Jun-13 09:27N 37°55' W 122°25'0 0.0
2018-Jun-13 08:57N 37°55' W 122°25'0 0.0
2018-Jun-13 08:27N 37°55' W 122°25'0 0.0
2018-Jun-13 07:57N 37°55' W 122°25'0 0.0
2018-Jun-13 06:57N 37°55' W 122°25'0 0.0
2018-Jun-13 06:27N 37°55' W 122°25'0 0.0
2018-Jun-13 06:00N 37°55' W 122°25'0 0.5
2018-Jun-13 05:31N 37°55' W 122°25'0 0.2
2018-Jun-13 05:01N 37°56' W 122°25'1 1.7
2018-Jun-13 04:31N 37°55' W 122°25'4 8.1
2018-Jun-13 04:01N 37°51' W 122°25'2 4.4
2018-Jun-13 03:30N 37°51' W 122°27'4 8.2
2018-Jun-13 03:00N 37°54' W 122°25'1 2.0
2018-Jun-13 02:25N 37°55' W 122°25'0 0.0
2018-Jun-13 01:58N 37°55' W 122°25'0 0.0
2018-Jun-13 01:25N 37°55' W 122°25'0 0.0
2018-Jun-13 00:58N 37°55' W 122°25'0 0.0
2018-Jun-13 00:25N 37°55' W 122°25'0 0.0
2018-Jun-12 23:55N 37°55' W 122°25'0 0.1
2018-Jun-12 23:19N 37°55' W 122°24'0 0.1
2018-Jun-12 22:55N 37°55' W 122°25'0 0.0
2018-Jun-12 22:28N 37°55' W 122°25'0 0.0
2018-Jun-12 21:58N 37°55' W 122°25'0 0.0
2018-Jun-12 21:30N 37°55' W 122°25'0 0.0
2018-Jun-12 21:00N 37°55' W 122°25'0 0.3
2018-Jun-12 20:31N 37°55' W 122°25'0 0.0
2018-Jun-12 19:58N 37°55' W 122°25'1 1.6
2018-Jun-12 19:31N 37°55' W 122°25'1 2.9
2018-Jun-12 19:01N 37°54' W 122°24'1 2.2
2018-Jun-12 18:29N 37°54' W 122°22'0 0.0
2018-Jun-12 17:59N 37°54' W 122°22'0 0.0
2018-Jun-12 17:29N 37°54' W 122°22'0 0.0
2018-Jun-12 16:59N 37°54' W 122°22'0 0.0
2018-Jun-12 16:23N 37°54' W 122°22'0 0.0
2018-Jun-12 15:59N 37°54' W 122°22'0 0.0
2018-Jun-12 15:29N 37°54' W 122°22'0 0.0
2018-Jun-12 14:59N 37°54' W 122°22'0 0.0
2018-Jun-12 14:29N 37°54' W 122°22'0 0.0
2018-Jun-12 13:59N 37°54' W 122°22'0 0.0
2018-Jun-12 13:29N 37°54' W 122°22'0 0.0
2018-Jun-12 12:59N 37°54' W 122°22'0 0.0
2018-Jun-12 12:29N 37°54' W 122°22'0 0.0
2018-Jun-12 11:56N 37°54' W 122°22'0 0.0
2018-Jun-12 11:29N 37°54' W 122°22'0 0.0
2018-Jun-12 10:56N 37°54' W 122°22'0 0.0
2018-Jun-12 10:29N 37°54' W 122°22'0 0.0
2018-Jun-12 09:59N 37°54' W 122°22'0 0.0
2018-Jun-12 09:29N 37°54' W 122°22'0 0.0
2018-Jun-12 08:59N 37°54' W 122°22'0 0.0
2018-Jun-12 08:29N 37°54' W 122°22'0 0.0
2018-Jun-12 07:53N 37°54' W 122°22'0 0.0
2018-Jun-12 07:29N 37°54' W 122°22'0 0.0
2018-Jun-12 06:59N 37°54' W 122°22'0 0.0
2018-Jun-12 06:29N 37°54' W 122°22'0 0.0
2018-Jun-12 05:59N 37°54' W 122°22'0 0.0
2018-Jun-12 05:29N 37°54' W 122°22'0 0.0
2018-Jun-12 04:59N 37°54' W 122°22'0 0.0
2018-Jun-12 04:29N 37°54' W 122°22'0 0.0
2018-Jun-12 03:59N 37°54' W 122°22'0 0.0
2018-Jun-12 03:29N 37°54' W 122°22'0 0.0
2018-Jun-12 02:59N 37°54' W 122°22'0 0.0
2018-Jun-12 02:29N 37°54' W 122°22'0 0.0
2018-Jun-12 01:59N 37°54' W 122°22'0 0.0
2018-Jun-12 01:29N 37°54' W 122°22'0 0.0
2018-Jun-12 00:56N 37°54' W 122°22'0 0.0
2018-Jun-12 00:29N 37°54' W 122°22'0 0.0
2018-Jun-11 23:59N 37°54' W 122°22'0 0.0
2018-Jun-11 23:26N 37°54' W 122°22'0 0.0
2018-Jun-11 22:56N 37°54' W 122°22'0 0.0
2018-Jun-11 22:29N 37°54' W 122°22'0 0.0
2018-Jun-11 21:59N 37°54' W 122°22'0 0.0
2018-Jun-11 21:29N 37°54' W 122°22'0 0.0
2018-Jun-11 20:59N 37°54' W 122°22'0 0.0
2018-Jun-11 20:29N 37°54' W 122°22'0 0.0
2018-Jun-11 19:59N 37°54' W 122°22'0 0.0
2018-Jun-11 19:29N 37°54' W 122°22'0 0.0
2018-Jun-11 18:59N 37°54' W 122°22'0 0.0
2018-Jun-11 18:26N 37°54' W 122°22'0 0.0
2018-Jun-11 17:59N 37°54' W 122°22'0 0.0
2018-Jun-11 17:29N 37°54' W 122°22'0 0.0
2018-Jun-11 16:59N 37°54' W 122°22'0 0.0
2018-Jun-11 16:29N 37°54' W 122°22'0 0.0
2018-Jun-11 15:59N 37°54' W 122°22'2 4.5
2018-Jun-11 15:30N 37°55' W 122°25'0 0.4
2018-Jun-11 15:00N 37°55' W 122°25'1 1.1
2018-Jun-11 14:30N 37°55' W 122°25'3 5.4
2018-Jun-11 14:01N 37°53' W 122°25'3 6.5
2018-Jun-11 13:30N 37°49' W 122°25'4 7.5
2018-Jun-11 13:00N 37°49' W 122°29'1 2.5
2018-Jun-11 12:30N 37°48' W 122°30'0 0.1
2018-Jun-11 11:59N 37°48' W 122°30'0 0.3
2018-Jun-11 11:29N 37°48' W 122°30'0 0.2
2018-Jun-11 10:59N 37°48' W 122°30'1 2.0
2018-Jun-11 10:31N 37°49' W 122°30'5 9.9
2018-Jun-11 10:00N 37°53' W 122°26'3 6.6
2018-Jun-11 09:30N 37°54' W 122°22'0 0.0
2018-Jun-11 09:00N 37°54' W 122°22'0 0.0
2018-Jun-11 08:24N 37°54' W 122°22'0 0.0
2018-Jun-11 08:00N 37°54' W 122°22'0 0.0
2018-Jun-11 07:30N 37°54' W 122°22'0 0.0
2018-Jun-11 07:00N 37°54' W 122°22'0 0.0
2018-Jun-11 06:24N 37°54' W 122°22'0 0.0
2018-Jun-11 06:00N 37°54' W 122°22'0 0.0
2018-Jun-11 05:30N 37°54' W 122°22'0 0.0
2018-Jun-11 05:00N 37°54' W 122°22'0 0.0
2018-Jun-11 04:30N 37°54' W 122°22'0 0.0
2018-Jun-11 04:00N 37°54' W 122°22'0 0.0
2018-Jun-11 03:27N 37°54' W 122°22'0 0.0
2018-Jun-11 02:57N 37°54' W 122°22'0 0.0
2018-Jun-11 02:30N 37°54' W 122°22'0 0.0
2018-Jun-11 02:00N 37°54' W 122°22'0 0.0
2018-Jun-11 01:30N 37°54' W 122°22'0 0.0
2018-Jun-11 01:00N 37°54' W 122°22'0 0.0
2018-Jun-11 00:30N 37°54' W 122°22'0 0.0
2018-Jun-11 00:00N 37°54' W 122°22'0 0.0
2018-Jun-10 23:30N 37°54' W 122°22'0 0.0
2018-Jun-10 23:00N 37°54' W 122°22'0 0.0
2018-Jun-10 22:30N 37°54' W 122°22'0 0.0
2018-Jun-10 22:00N 37°54' W 122°22'0 0.0
2018-Jun-10 21:30N 37°54' W 122°22'0 0.0
2018-Jun-10 20:57N 37°54' W 122°22'0 0.0
2018-Jun-10 20:28N 37°54' W 122°22'3 5.6
2018-Jun-10 20:00N 37°55' W 122°25'510.3
2018-Jun-10 19:30N 38°01' W 122°24'510.5
2018-Jun-10 19:00N 38°03' W 122°18'5 9.0
2018-Jun-10 18:30N 38°03' W 122°12'3 1.5
2018-Jun-10 16:22N 38°02' W 122°09'4 7.6
2018-Jun-10 15:53N 38°04' W 122°13'3 9.1
2018-Jun-10 15:31N 38°03' W 122°17'2 4.0
2018-Jun-10 15:00N 38°03' W 122°20'8 8.4
2018-Jun-10 14:00N 37°56' W 122°25'3 5.0
2018-Jun-10 13:28N 37°54' W 122°22'0 0.0
2018-Jun-10 12:58N 37°54' W 122°22'0 0.0
2018-Jun-10 12:28N 37°54' W 122°22'0 0.0
2018-Jun-10 11:58N 37°54' W 122°22'0 0.0
2018-Jun-10 11:28N 37°54' W 122°22'0 0.0
2018-Jun-10 10:58N 37°54' W 122°22'0 0.0
2018-Jun-10 10:25N 37°54' W 122°22'0 0.0
2018-Jun-10 09:58N 37°54' W 122°22'0 0.0
2018-Jun-10 09:28N 37°54' W 122°22'0 0.0
2018-Jun-10 08:55N 37°54' W 122°22'0 0.0
2018-Jun-10 08:28N 37°54' W 122°22'0 0.0
2018-Jun-10 07:58N 37°54' W 122°22'0 0.0
2018-Jun-10 07:25N 37°54' W 122°22'0 0.0
2018-Jun-10 06:58N 37°54' W 122°22'0 0.0
2018-Jun-10 06:28N 37°54' W 122°22'0 0.0
2018-Jun-10 06:00N 37°54' W 122°22'0 0.0
2018-Jun-10 05:29N 37°54' W 122°22'0 0.0
2018-Jun-10 05:00N 37°54' W 122°22'0 0.0
2018-Jun-10 04:30N 37°54' W 122°22'0 0.0
2018-Jun-10 04:00N 37°54' W 122°22'2 4.1
2018-Jun-10 03:30N 37°55' W 122°25'0 0.8
2018-Jun-10 03:00N 37°55' W 122°25'3 6.4
2018-Jun-10 02:30N 37°52' W 122°25'3 6.2
2018-Jun-10 02:00N 37°49' W 122°23'3 5.6
2018-Jun-10 01:30N 37°47' W 122°22'1 2.9
2018-Jun-10 01:00N 37°45' W 122°21'1 1.3
2018-Jun-10 00:31N 37°46' W 122°21'2 4.5
2018-Jun-10 00:00N 37°48' W 122°21'0 0.0
2018-Jun-09 23:30N 37°48' W 122°21'1 2.2
2018-Jun-09 23:00N 37°48' W 122°19'0 1.0
2018-Jun-09 22:30N 37°48' W 122°19'1 2.2
2018-Jun-09 22:00N 37°48' W 122°17'2 3.2
2018-Jun-09 21:30N 37°48' W 122°19'4 7.2
2018-Jun-09 21:00N 37°49' W 122°24'2 4.0
2018-Jun-09 20:30N 37°51' W 122°24'4 8.3
2018-Jun-09 20:00N 37°55' W 122°25'0 0.0
2018-Jun-09 19:24N 37°55' W 122°25'0 0.0
2018-Jun-09 19:00N 37°55' W 122°25'0 0.1
2018-Jun-09 18:30N 37°55' W 122°24'0 0.0
2018-Jun-09 18:00N 37°55' W 122°24'0 0.5
2018-Jun-09 17:30N 37°55' W 122°25'0 0.6
2018-Jun-09 17:00N 37°55' W 122°25'3 5.0
2018-Jun-09 16:30N 37°53' W 122°25'2 3.6
2018-Jun-09 16:00N 37°55' W 122°24'2 2.8
2018-Jun-09 15:26N 37°54' W 122°22'0 0.0
2018-Jun-09 14:29N 37°54' W 122°22'0 0.0
2018-Jun-09 13:59N 37°54' W 122°22'0 0.0
2018-Jun-09 13:29N 37°54' W 122°22'0 0.0
2018-Jun-09 12:53N 37°54' W 122°22'0 0.0
2018-Jun-09 12:29N 37°54' W 122°22'0 0.0
2018-Jun-09 11:59N 37°54' W 122°22'0 0.0
2018-Jun-09 11:29N 37°54' W 122°22'0 0.0
2018-Jun-09 10:59N 37°54' W 122°22'1 1.9
2018-Jun-09 10:30N 37°55' W 122°22'1 1.6
2018-Jun-09 10:00N 37°54' W 122°22'0 0.9
2018-Jun-09 09:30N 37°54' W 122°22'0 0.0
2018-Jun-09 09:00N 37°54' W 122°22'0 0.0
2018-Jun-09 08:30N 37°54' W 122°22'0 0.0
2018-Jun-09 07:57N 37°54' W 122°22'0 0.0
2018-Jun-09 07:27N 37°54' W 122°22'0 0.0
2018-Jun-09 06:57N 37°54' W 122°22'0 0.0
2018-Jun-09 06:30N 37°54' W 122°22'0 0.0
2018-Jun-09 06:00N 37°54' W 122°22'0 0.0
2018-Jun-09 05:27N 37°54' W 122°22'0 0.0
2018-Jun-09 05:00N 37°54' W 122°22'0 0.5
2018-Jun-09 04:30N 37°54' W 122°23'2 3.5
2018-Jun-09 04:00N 37°55' W 122°25'1 1.1
2018-Jun-09 03:29N 37°55' W 122°25'2 3.7
2018-Jun-09 03:00N 37°53' W 122°25'2 3.8
2018-Jun-09 02:30N 37°55' W 122°25'0 0.0
2018-Jun-09 02:00N 37°55' W 122°25'0 0.0
2018-Jun-09 01:30N 37°55' W 122°25'0 0.0
2018-Jun-09 00:54N 37°55' W 122°25'0 0.0
2018-Jun-09 00:27N 37°55' W 122°25'0 0.0
2018-Jun-09 00:00N 37°55' W 122°25'0 0.0
2018-Jun-08 23:27N 37°55' W 122°25'0 0.0
2018-Jun-08 23:00N 37°55' W 122°25'0 0.0
2018-Jun-08 22:27N 37°55' W 122°25'0 0.0
2018-Jun-08 21:57N 37°55' W 122°25'0 0.0
2018-Jun-08 21:30N 37°55' W 122°25'  

Dump ship's entire track history